sensor_id;sensor_type;location;lat;lon;timestamp;temperature;humidity
23803;DHT22;12082;51.786;6.018;2023-05-10T00:01:34;13.40;99.90
23803;DHT22;12082;51.786;6.018;2023-05-10T00:03:59;12.40;99.90
23803;DHT22;12082;51.786;6.018;2023-05-10T00:06:25;12.40;99.90
23803;DHT22;12082;51.786;6.018;2023-05-10T00:08:51;12.40;99.90
23803;DHT22;12082;51.786;6.018;2023-05-10T00:11:16;12.40;99.90
23803;DHT22;12082;51.786;6.018;2023-05-10T00:13:42;12.50;99.90
23803;DHT22;12082;51.786;6.018;2023-05-10T00:16:07;12.40;99.90
23803;DHT22;12082;51.786;6.018;2023-05-10T00:18:33;12.40;99.90
23803;DHT22;12082;51.786;6.018;2023-05-10T00:20:58;12.40;99.90
23803;DHT22;12082;51.786;6.018;2023-05-10T00:23:24;12.30;99.90
23803;DHT22;12082;51.786;6.018;2023-05-10T00:25:49;12.50;99.90
23803;DHT22;12082;51.786;6.018;2023-05-10T00:28:15;12.50;99.90
23803;DHT22;12082;51.786;6.018;2023-05-10T00:30:41;12.50;99.90
23803;DHT22;12082;51.786;6.018;2023-05-10T00:33:06;12.50;99.90
23803;DHT22;12082;51.786;6.018;2023-05-10T00:35:32;12.50;99.90
23803;DHT22;12082;51.786;6.018;2023-05-10T00:37:57;12.60;99.90
23803;DHT22;12082;51.786;6.018;2023-05-10T00:40:23;12.60;99.90
23803;DHT22;12082;51.786;6.018;2023-05-10T00:42:49;12.50;99.90
23803;DHT22;12082;51.786;6.018;2023-05-10T00:45:14;12.60;99.90
23803;DHT22;12082;51.786;6.018;2023-05-10T00:47:40;12.60;99.90
23803;DHT22;12082;51.786;6.018;2023-05-10T00:50:06;12.60;99.90
23803;DHT22;12082;51.786;6.018;2023-05-10T00:52:32;12.60;99.90
23803;DHT22;12082;51.786;6.018;2023-05-10T00:54:57;12.60;99.90
23803;DHT22;12082;51.786;6.018;2023-05-10T00:57:24;12.60;99.90
23803;DHT22;12082;51.786;6.018;2023-05-10T00:59:50;12.60;99.90
23803;DHT22;12082;51.786;6.018;2023-05-10T01:02:16;12.50;99.90
23803;DHT22;12082;51.786;6.018;2023-05-10T01:04:43;12.70;99.90
23803;DHT22;12082;51.786;6.018;2023-05-10T01:07:08;12.60;99.90
23803;DHT22;12082;51.786;6.018;2023-05-10T01:09:34;12.70;99.90
23803;DHT22;12082;51.786;6.018;2023-05-10T01:12:00;12.70;99.90
23803;DHT22;12082;51.786;6.018;2023-05-10T01:14:26;12.70;99.90
23803;DHT22;12082;51.786;6.018;2023-05-10T01:16:53;12.70;99.90
23803;DHT22;12082;51.786;6.018;2023-05-10T01:19:23;12.70;99.90
23803;DHT22;12082;51.786;6.018;2023-05-10T01:22:07;12.70;99.90
23803;DHT22;12082;51.786;6.018;2023-05-10T01:24:40;12.70;99.90
23803;DHT22;12082;51.786;6.018;2023-05-10T01:27:17;12.70;99.90
23803;DHT22;12082;51.786;6.018;2023-05-10T01:33:07;12.70;99.90
23803;DHT22;12082;51.786;6.018;2023-05-10T01:35:43;12.70;99.90
23803;DHT22;12082;51.786;6.018;2023-05-10T01:38:33;12.70;99.90
23803;DHT22;12082;51.786;6.018;2023-05-10T01:43:30;12.70;99.90
23803;DHT22;12082;51.786;6.018;2023-05-10T01:46:02;12.70;99.90
23803;DHT22;12082;51.786;6.018;2023-05-10T01:48:40;12.70;99.90
23803;DHT22;12082;51.786;6.018;2023-05-10T01:51:11;12.70;99.90
23803;DHT22;12082;51.786;6.018;2023-05-10T01:53:38;12.70;99.90
23803;DHT22;12082;51.786;6.018;2023-05-10T01:56:07;12.70;99.90
23803;DHT22;12082;51.786;6.018;2023-05-10T01:58:33;12.70;99.90
23803;DHT22;12082;51.786;6.018;2023-05-10T02:01:03;12.70;99.90
23803;DHT22;12082;51.786;6.018;2023-05-10T02:03:31;12.70;99.90
23803;DHT22;12082;51.786;6.018;2023-05-10T02:05:57;12.60;99.90
23803;DHT22;12082;51.786;6.018;2023-05-10T02:08:24;12.70;99.90
23803;DHT22;12082;51.786;6.018;2023-05-10T02:10:52;12.70;99.90
23803;DHT22;12082;51.786;6.018;2023-05-10T02:13:18;12.60;99.90
23803;DHT22;12082;51.786;6.018;2023-05-10T02:15:47;12.60;99.90
23803;DHT22;12082;51.786;6.018;2023-05-10T02:18:14;12.60;99.90
23803;DHT22;12082;51.786;6.018;2023-05-10T02:20:42;12.60;99.90
23803;DHT22;12082;51.786;6.018;2023-05-10T02:23:08;12.60;99.90
23803;DHT22;12082;51.786;6.018;2023-05-10T02:25:35;12.60;99.90
23803;DHT22;12082;51.786;6.018;2023-05-10T02:28:03;12.60;99.90
23803;DHT22;12082;51.786;6.018;2023-05-10T02:30:31;12.60;99.90
23803;DHT22;12082;51.786;6.018;2023-05-10T02:32:57;12.60;99.90
23803;DHT22;12082;51.786;6.018;2023-05-10T02:35:26;12.50;99.90
23803;DHT22;12082;51.786;6.018;2023-05-10T02:37:52;12.50;99.90
23803;DHT22;12082;51.786;6.018;2023-05-10T02:40:20;12.50;99.90
23803;DHT22;12082;51.786;6.018;2023-05-10T02:42:48;12.50;99.90
23803;DHT22;12082;51.786;6.018;2023-05-10T02:45:21;12.50;99.90
23803;DHT22;12082;51.786;6.018;2023-05-10T02:47:48;12.50;99.90
23803;DHT22;12082;51.786;6.018;2023-05-10T02:50:14;12.50;99.90
23803;DHT22;12082;51.786;6.018;2023-05-10T02:52:44;12.40;99.90
23803;DHT22;12082;51.786;6.018;2023-05-10T02:55:12;12.40;99.90
23803;DHT22;12082;51.786;6.018;2023-05-10T02:58:14;12.50;99.90
23803;DHT22;12082;51.786;6.018;2023-05-10T03:00:33;12.40;99.90
23803;DHT22;12082;51.786;6.018;2023-05-10T03:02:59;12.40;99.90
23803;DHT22;12082;51.786;6.018;2023-05-10T03:05:25;12.40;99.90
23803;DHT22;12082;51.786;6.018;2023-05-10T03:07:52;12.40;99.90
23803;DHT22;12082;51.786;6.018;2023-05-10T03:10:18;12.40;99.90
23803;DHT22;12082;51.786;6.018;2023-05-10T03:13:27;12.40;99.90
23803;DHT22;12082;51.786;6.018;2023-05-10T03:16:06;12.40;99.90
23803;DHT22;12082;51.786;6.018;2023-05-10T03:18:44;12.30;99.90
23803;DHT22;12082;51.786;6.018;2023-05-10T03:21:14;12.40;99.90
23803;DHT22;12082;51.786;6.018;2023-05-10T03:23:48;12.30;99.90
23803;DHT22;12082;51.786;6.018;2023-05-10T03:26:20;12.30;99.90
23803;DHT22;12082;51.786;6.018;2023-05-10T03:28:47;12.30;99.90
23803;DHT22;12082;51.786;6.018;2023-05-10T03:31:14;12.20;99.90
23803;DHT22;12082;51.786;6.018;2023-05-10T03:33:50;12.30;99.90
23803;DHT22;12082;51.786;6.018;2023-05-10T03:36:16;12.20;99.90
23803;DHT22;12082;51.786;6.018;2023-05-10T03:38:42;12.30;99.90
23803;DHT22;12082;51.786;6.018;2023-05-10T03:41:07;12.20;99.90
23803;DHT22;12082;51.786;6.018;2023-05-10T03:43:33;12.20;99.90
23803;DHT22;12082;51.786;6.018;2023-05-10T03:45:58;12.30;99.90
23803;DHT22;12082;51.786;6.018;2023-05-10T03:48:26;12.20;99.90
23803;DHT22;12082;51.786;6.018;2023-05-10T03:50:51;12.20;99.90
23803;DHT22;12082;51.786;6.018;2023-05-10T03:53:17;12.20;99.90
23803;DHT22;12082;51.786;6.018;2023-05-10T03:55:42;12.20;99.90
23803;DHT22;12082;51.786;6.018;2023-05-10T03:58:11;12.20;99.90
23803;DHT22;12082;51.786;6.018;2023-05-10T04:00:36;12.20;99.90
23803;DHT22;12082;51.786;6.018;2023-05-10T04:03:02;12.20;99.90
23803;DHT22;12082;51.786;6.018;2023-05-10T04:05:27;12.20;99.90
23803;DHT22;12082;51.786;6.018;2023-05-10T04:07:53;12.30;99.90
23803;DHT22;12082;51.786;6.018;2023-05-10T04:10:19;12.30;99.90
23803;DHT22;12082;51.786;6.018;2023-05-10T04:12:44;12.20;99.90
23803;DHT22;12082;51.786;6.018;2023-05-10T04:15:10;12.30;99.90
23803;DHT22;12082;51.786;6.018;2023-05-10T04:17:35;12.20;99.90
23803;DHT22;12082;51.786;6.018;2023-05-10T04:20:01;12.30;99.90
23803;DHT22;12082;51.786;6.018;2023-05-10T04:22:27;12.00;99.90
23803;DHT22;12082;51.786;6.018;2023-05-10T04:24:54;12.30;99.90
23803;DHT22;12082;51.786;6.018;2023-05-10T04:27:19;12.30;99.90
23803;DHT22;12082;51.786;6.018;2023-05-10T04:29:45;12.30;99.90
23803;DHT22;12082;51.786;6.018;2023-05-10T04:32:11;12.30;99.90
23803;DHT22;12082;51.786;6.018;2023-05-10T04:34:37;12.30;99.90
23803;DHT22;12082;51.786;6.018;2023-05-10T04:37:02;12.30;99.90
23803;DHT22;12082;51.786;6.018;2023-05-10T04:39:28;12.40;99.90
23803;DHT22;12082;51.786;6.018;2023-05-10T04:41:53;12.30;99.90
23803;DHT22;12082;51.786;6.018;2023-05-10T04:44:19;12.40;99.90
23803;DHT22;12082;51.786;6.018;2023-05-10T04:46:44;12.40;99.90
23803;DHT22;12082;51.786;6.018;2023-05-10T04:49:10;12.40;99.90
23803;DHT22;12082;51.786;6.018;2023-05-10T04:51:35;12.50;99.90
23803;DHT22;12082;51.786;6.018;2023-05-10T04:54:01;12.70;99.90
23803;DHT22;12082;51.786;6.018;2023-05-10T04:56:27;12.50;99.90
23803;DHT22;12082;51.786;6.018;2023-05-10T04:58:52;12.50;99.90
23803;DHT22;12082;51.786;6.018;2023-05-10T05:01:18;12.50;99.90
23803;DHT22;12082;51.786;6.018;2023-05-10T05:03:43;12.50;99.90
23803;DHT22;12082;51.786;6.018;2023-05-10T05:06:09;12.50;99.90
23803;DHT22;12082;51.786;6.018;2023-05-10T05:08:34;12.50;99.90
23803;DHT22;12082;51.786;6.018;2023-05-10T05:11:00;12.60;99.90
23803;DHT22;12082;51.786;6.018;2023-05-10T05:13:25;12.60;99.90
23803;DHT22;12082;51.786;6.018;2023-05-10T05:15:51;12.50;99.90
23803;DHT22;12082;51.786;6.018;2023-05-10T05:18:17;12.60;99.90
23803;DHT22;12082;51.786;6.018;2023-05-10T05:20:42;12.60;99.90
23803;DHT22;12082;51.786;6.018;2023-05-10T05:23:08;12.60;99.90
23803;DHT22;12082;51.786;6.018;2023-05-10T05:25:33;12.60;99.90
23803;DHT22;12082;51.786;6.018;2023-05-10T05:27:59;12.60;99.90
23803;DHT22;12082;51.786;6.018;2023-05-10T05:30:25;12.50;99.90
23803;DHT22;12082;51.786;6.018;2023-05-10T05:32:50;12.60;99.90
23803;DHT22;12082;51.786;6.018;2023-05-10T05:35:16;12.60;99.90
23803;DHT22;12082;51.786;6.018;2023-05-10T05:37:42;12.60;99.90
23803;DHT22;12082;51.786;6.018;2023-05-10T05:40:08;12.60;99.90
23803;DHT22;12082;51.786;6.018;2023-05-10T05:42:33;12.60;99.90
23803;DHT22;12082;51.786;6.018;2023-05-10T05:44:59;12.60;99.90
23803;DHT22;12082;51.786;6.018;2023-05-10T05:47:24;12.70;99.90
23803;DHT22;12082;51.786;6.018;2023-05-10T05:49:50;12.60;99.90
23803;DHT22;12082;51.786;6.018;2023-05-10T05:52:16;12.60;99.90
23803;DHT22;12082;51.786;6.018;2023-05-10T05:54:42;12.60;99.90
23803;DHT22;12082;51.786;6.018;2023-05-10T05:57:07;12.70;99.90
23803;DHT22;12082;51.786;6.018;2023-05-10T05:59:33;12.70;99.90
23803;DHT22;12082;51.786;6.018;2023-05-10T06:01:58;12.70;99.90
23803;DHT22;12082;51.786;6.018;2023-05-10T06:04:24;12.70;99.90
23803;DHT22;12082;51.786;6.018;2023-05-10T06:06:49;12.70;99.90
23803;DHT22;12082;51.786;6.018;2023-05-10T06:09:15;12.80;99.90
23803;DHT22;12082;51.786;6.018;2023-05-10T06:11:41;13.10;99.90
23803;DHT22;12082;51.786;6.018;2023-05-10T06:14:06;12.80;99.90
23803;DHT22;12082;51.786;6.018;2023-05-10T06:16:33;12.80;99.90
23803;DHT22;12082;51.786;6.018;2023-05-10T06:18:59;12.80;99.90
23803;DHT22;12082;51.786;6.018;2023-05-10T06:21:25;12.80;99.90
23803;DHT22;12082;51.786;6.018;2023-05-10T06:23:50;12.80;99.90
23803;DHT22;12082;51.786;6.018;2023-05-10T06:26:16;12.80;99.90
23803;DHT22;12082;51.786;6.018;2023-05-10T06:28:42;12.80;99.90
23803;DHT22;12082;51.786;6.018;2023-05-10T06:31:07;12.80;99.90
23803;DHT22;12082;51.786;6.018;2023-05-10T06:33:33;12.80;99.90
23803;DHT22;12082;51.786;6.018;2023-05-10T06:35:59;12.70;99.90
23803;DHT22;12082;51.786;6.018;2023-05-10T06:38:24;12.70;99.90
23803;DHT22;12082;51.786;6.018;2023-05-10T06:40:50;12.70;99.90
23803;DHT22;12082;51.786;6.018;2023-05-10T06:43:16;12.70;99.90
23803;DHT22;12082;51.786;6.018;2023-05-10T06:45:41;12.80;99.90
23803;DHT22;12082;51.786;6.018;2023-05-10T06:48:07;12.90;99.90
23803;DHT22;12082;51.786;6.018;2023-05-10T06:50:33;12.80;99.90
23803;DHT22;12082;51.786;6.018;2023-05-10T06:52:59;13.20;99.90
23803;DHT22;12082;51.786;6.018;2023-05-10T06:55:25;12.70;99.90
23803;DHT22;12082;51.786;6.018;2023-05-10T06:57:50;12.70;99.90
23803;DHT22;12082;51.786;6.018;2023-05-10T07:00:17;12.60;99.90
23803;DHT22;12082;51.786;6.018;2023-05-10T07:02:43;12.70;99.90
23803;DHT22;12082;51.786;6.018;2023-05-10T07:05:08;12.60;99.90
23803;DHT22;12082;51.786;6.018;2023-05-10T07:07:34;12.50;99.90
23803;DHT22;12082;51.786;6.018;2023-05-10T07:10:00;12.60;99.90
23803;DHT22;12082;51.786;6.018;2023-05-10T07:12:26;12.60;99.90
23803;DHT22;12082;51.786;6.018;2023-05-10T07:14:51;12.60;99.90
23803;DHT22;12082;51.786;6.018;2023-05-10T07:17:17;12.60;99.90
23803;DHT22;12082;51.786;6.018;2023-05-10T07:19:43;12.60;99.90
23803;DHT22;12082;51.786;6.018;2023-05-10T07:22:08;12.60;99.90
23803;DHT22;12082;51.786;6.018;2023-05-10T07:24:34;12.60;99.90
23803;DHT22;12082;51.786;6.018;2023-05-10T07:27:00;12.70;99.90
23803;DHT22;12082;51.786;6.018;2023-05-10T07:29:26;12.60;99.90
23803;DHT22;12082;51.786;6.018;2023-05-10T07:31:51;12.60;99.90
23803;DHT22;12082;51.786;6.018;2023-05-10T07:34:17;12.60;99.90
23803;DHT22;12082;51.786;6.018;2023-05-10T07:36:43;12.60;99.90
23803;DHT22;12082;51.786;6.018;2023-05-10T07:39:08;12.60;99.90
23803;DHT22;12082;51.786;6.018;2023-05-10T07:41:34;12.70;99.90
23803;DHT22;12082;51.786;6.018;2023-05-10T07:43:59;12.60;99.90
23803;DHT22;12082;51.786;6.018;2023-05-10T07:46:25;12.70;99.90
23803;DHT22;12082;51.786;6.018;2023-05-10T07:48:51;12.70;99.90
23803;DHT22;12082;51.786;6.018;2023-05-10T07:51:16;12.80;99.90
23803;DHT22;12082;51.786;6.018;2023-05-10T07:53:42;12.80;99.90
23803;DHT22;12082;51.786;6.018;2023-05-10T07:56:24;12.80;99.90
23803;DHT22;12082;51.786;6.018;2023-05-10T07:58:51;12.90;99.90
23803;DHT22;12082;51.786;6.018;2023-05-10T08:01:17;12.90;99.90
23803;DHT22;12082;51.786;6.018;2023-05-10T08:03:42;12.80;99.90
23803;DHT22;12082;51.786;6.018;2023-05-10T08:06:08;12.80;99.90
23803;DHT22;12082;51.786;6.018;2023-05-10T08:08:33;12.80;99.90
23803;DHT22;12082;51.786;6.018;2023-05-10T08:10:59;12.80;99.90
23803;DHT22;12082;51.786;6.018;2023-05-10T08:13:24;12.80;99.90
23803;DHT22;12082;51.786;6.018;2023-05-10T08:15:50;12.80;99.90
23803;DHT22;12082;51.786;6.018;2023-05-10T08:18:18;12.80;99.90
23803;DHT22;12082;51.786;6.018;2023-05-10T08:20:44;12.90;99.90
23803;DHT22;12082;51.786;6.018;2023-05-10T08:23:10;13.00;99.90
23803;DHT22;12082;51.786;6.018;2023-05-10T08:25:35;13.10;99.90
23803;DHT22;12082;51.786;6.018;2023-05-10T08:28:01;13.00;99.90
23803;DHT22;12082;51.786;6.018;2023-05-10T08:30:26;13.00;99.90
23803;DHT22;12082;51.786;6.018;2023-05-10T08:32:52;13.00;99.90
23803;DHT22;12082;51.786;6.018;2023-05-10T08:35:17;13.10;99.90
23803;DHT22;12082;51.786;6.018;2023-05-10T08:37:43;13.20;99.90
23803;DHT22;12082;51.786;6.018;2023-05-10T08:40:09;13.40;99.90
23803;DHT22;12082;51.786;6.018;2023-05-10T08:42:39;13.50;99.90
23803;DHT22;12082;51.786;6.018;2023-05-10T08:45:07;13.50;99.90
23803;DHT22;12082;51.786;6.018;2023-05-10T08:47:35;13.40;99.90
23803;DHT22;12082;51.786;6.018;2023-05-10T08:50:02;13.50;99.90
23803;DHT22;12082;51.786;6.018;2023-05-10T08:52:30;13.50;99.90
23803;DHT22;12082;51.786;6.018;2023-05-10T08:54:56;13.50;99.90
23803;DHT22;12082;51.786;6.018;2023-05-10T08:57:22;13.60;99.90
23803;DHT22;12082;51.786;6.018;2023-05-10T08:59:47;13.60;99.90
23803;DHT22;12082;51.786;6.018;2023-05-10T09:02:13;13.60;99.90
23803;DHT22;12082;51.786;6.018;2023-05-10T09:04:39;13.60;99.90
23803;DHT22;12082;51.786;6.018;2023-05-10T09:07:06;13.60;99.90
23803;DHT22;12082;51.786;6.018;2023-05-10T09:09:32;13.70;99.90
23803;DHT22;12082;51.786;6.018;2023-05-10T09:11:58;13.60;99.90
23803;DHT22;12082;51.786;6.018;2023-05-10T09:14:25;13.60;99.90
23803;DHT22;12082;51.786;6.018;2023-05-10T09:16:51;13.60;99.90
23803;DHT22;12082;51.786;6.018;2023-05-10T09:19:17;13.60;99.90
23803;DHT22;12082;51.786;6.018;2023-05-10T09:21:43;13.70;99.90
23803;DHT22;12082;51.786;6.018;2023-05-10T09:24:08;13.80;99.90
23803;DHT22;12082;51.786;6.018;2023-05-10T09:26:35;13.60;99.90
23803;DHT22;12082;51.786;6.018;2023-05-10T09:29:01;13.50;99.90
23803;DHT22;12082;51.786;6.018;2023-05-10T09:31:47;13.60;99.90
23803;DHT22;12082;51.786;6.018;2023-05-10T09:34:20;13.60;99.90
23803;DHT22;12082;51.786;6.018;2023-05-10T09:36:57;13.60;99.90
23803;DHT22;12082;51.786;6.018;2023-05-10T09:39:36;13.60;99.90
23803;DHT22;12082;51.786;6.018;2023-05-10T09:42:07;13.60;99.90
23803;DHT22;12082;51.786;6.018;2023-05-10T09:44:33;13.60;99.90
23803;DHT22;12082;51.786;6.018;2023-05-10T09:47:02;13.60;99.90
23803;DHT22;12082;51.786;6.018;2023-05-10T09:49:28;13.60;99.90
23803;DHT22;12082;51.786;6.018;2023-05-10T09:52:06;13.50;99.90
23803;DHT22;12082;51.786;6.018;2023-05-10T09:54:33;13.40;99.90
23803;DHT22;12082;51.786;6.018;2023-05-10T09:56:59;13.40;99.90
23803;DHT22;12082;51.786;6.018;2023-05-10T09:59:26;13.30;99.90
23803;DHT22;12082;51.786;6.018;2023-05-10T10:01:59;13.30;99.90
23803;DHT22;12082;51.786;6.018;2023-05-10T10:04:25;13.20;99.90
23803;DHT22;12082;51.786;6.018;2023-05-10T10:07:04;13.30;99.90
23803;DHT22;12082;51.786;6.018;2023-05-10T10:09:30;13.30;99.90
23803;DHT22;12082;51.786;6.018;2023-05-10T10:11:56;13.30;99.90
23803;DHT22;12082;51.786;6.018;2023-05-10T10:14:22;13.30;99.90
23803;DHT22;12082;51.786;6.018;2023-05-10T10:16:49;13.20;99.90
23803;DHT22;12082;51.786;6.018;2023-05-10T10:19:18;13.20;99.90
23803;DHT22;12082;51.786;6.018;2023-05-10T10:21:43;13.30;99.90
23803;DHT22;12082;51.786;6.018;2023-05-10T10:24:09;13.20;99.90
23803;DHT22;12082;51.786;6.018;2023-05-10T10:26:35;13.20;99.90
23803;DHT22;12082;51.786;6.018;2023-05-10T10:31:40;13.30;99.90
23803;DHT22;12082;51.786;6.018;2023-05-10T10:34:09;13.30;99.90
23803;DHT22;12082;51.786;6.018;2023-05-10T10:36:45;13.40;99.90
23803;DHT22;12082;51.786;6.018;2023-05-10T10:39:12;13.40;99.90
23803;DHT22;12082;51.786;6.018;2023-05-10T10:41:48;13.30;99.90
23803;DHT22;12082;51.786;6.018;2023-05-10T10:52:31;13.50;99.90
23803;DHT22;12082;51.786;6.018;2023-05-10T10:55:16;13.60;99.90
23803;DHT22;12082;51.786;6.018;2023-05-10T11:00:25;13.80;99.90
23803;DHT22;12082;51.786;6.018;2023-05-10T11:05:35;14.00;99.90
23803;DHT22;12082;51.786;6.018;2023-05-10T11:08:19;14.30;99.90
23803;DHT22;12082;51.786;6.018;2023-05-10T11:13:47;14.30;99.90
23803;DHT22;12082;51.786;6.018;2023-05-10T11:16:18;14.30;99.90
23803;DHT22;12082;51.786;6.018;2023-05-10T11:21:25;14.40;99.90
23803;DHT22;12082;51.786;6.018;2023-05-10T11:23:59;14.50;99.90
23803;DHT22;12082;51.786;6.018;2023-05-10T11:26:33;14.50;99.90
23803;DHT22;12082;51.786;6.018;2023-05-10T11:28:59;14.50;99.90
23803;DHT22;12082;51.786;6.018;2023-05-10T11:31:26;14.50;99.90
23803;DHT22;12082;51.786;6.018;2023-05-10T11:33:56;14.50;99.90
23803;DHT22;12082;51.786;6.018;2023-05-10T11:36:27;14.60;99.90
23803;DHT22;12082;51.786;6.018;2023-05-10T11:38:53;14.70;99.90
23803;DHT22;12082;51.786;6.018;2023-05-10T11:41:20;14.70;99.90
23803;DHT22;12082;51.786;6.018;2023-05-10T11:43:53;14.80;99.90
23803;DHT22;12082;51.786;6.018;2023-05-10T11:46:21;14.70;99.90
23803;DHT22;12082;51.786;6.018;2023-05-10T11:49:07;14.70;99.90
23803;DHT22;12082;51.786;6.018;2023-05-10T11:51:36;14.70;99.90
23803;DHT22;12082;51.786;6.018;2023-05-10T11:54:06;14.80;99.90
23803;DHT22;12082;51.786;6.018;2023-05-10T11:56:32;14.80;99.90
23803;DHT22;12082;51.786;6.018;2023-05-10T11:58:59;14.80;99.90
23803;DHT22;12082;51.786;6.018;2023-05-10T12:01:27;14.90;99.90
23803;DHT22;12082;51.786;6.018;2023-05-10T12:03:55;14.90;99.90
23803;DHT22;12082;51.786;6.018;2023-05-10T12:06:27;14.90;99.90
23803;DHT22;12082;51.786;6.018;2023-05-10T12:08:52;14.90;99.90
23803;DHT22;12082;51.786;6.018;2023-05-10T12:11:19;15.20;99.90
23803;DHT22;12082;51.786;6.018;2023-05-10T12:13:46;15.30;99.90
23803;DHT22;12082;51.786;6.018;2023-05-10T12:16:23;15.40;99.90
23803;DHT22;12082;51.786;6.018;2023-05-10T12:18:49;15.40;99.90
23803;DHT22;12082;51.786;6.018;2023-05-10T12:21:16;15.50;99.90
23803;DHT22;12082;51.786;6.018;2023-05-10T12:23:43;15.60;99.90
23803;DHT22;12082;51.786;6.018;2023-05-10T12:26:10;15.70;99.90
23803;DHT22;12082;51.786;6.018;2023-05-10T12:28:37;15.80;99.90
23803;DHT22;12082;51.786;6.018;2023-05-10T12:31:03;15.90;99.90
23803;DHT22;12082;51.786;6.018;2023-05-10T12:33:42;16.00;99.90
23803;DHT22;12082;51.786;6.018;2023-05-10T12:36:09;16.00;99.90
23803;DHT22;12082;51.786;6.018;2023-05-10T12:38:39;16.10;99.90
23803;DHT22;12082;51.786;6.018;2023-05-10T12:41:12;16.00;99.90
23803;DHT22;12082;51.786;6.018;2023-05-10T12:43:39;15.90;99.90
23803;DHT22;12082;51.786;6.018;2023-05-10T12:46:12;15.80;99.90
23803;DHT22;12082;51.786;6.018;2023-05-10T12:48:39;15.80;99.90
23803;DHT22;12082;51.786;6.018;2023-05-10T12:51:06;15.70;99.90
23803;DHT22;12082;51.786;6.018;2023-05-10T12:53:35;15.70;99.90
23803;DHT22;12082;51.786;6.018;2023-05-10T12:56:01;15.60;99.90
23803;DHT22;12082;51.786;6.018;2023-05-10T12:58:27;15.50;99.90
23803;DHT22;12082;51.786;6.018;2023-05-10T13:00:52;15.40;99.90
23803;DHT22;12082;51.786;6.018;2023-05-10T13:03:18;15.30;99.90
23803;DHT22;12082;51.786;6.018;2023-05-10T13:05:44;15.30;99.90
23803;DHT22;12082;51.786;6.018;2023-05-10T13:08:09;15.40;99.90
23803;DHT22;12082;51.786;6.018;2023-05-10T13:10:35;15.40;99.90
23803;DHT22;12082;51.786;6.018;2023-05-10T13:13:01;15.50;99.90
23803;DHT22;12082;51.786;6.018;2023-05-10T13:15:26;15.50;99.90
23803;DHT22;12082;51.786;6.018;2023-05-10T13:17:53;15.50;99.90
23803;DHT22;12082;51.786;6.018;2023-05-10T13:20:19;15.30;99.90
23803;DHT22;12082;51.786;6.018;2023-05-10T13:22:45;15.20;99.90
23803;DHT22;12082;51.786;6.018;2023-05-10T13:25:11;15.10;99.90
23803;DHT22;12082;51.786;6.018;2023-05-10T13:27:40;14.90;99.90
23803;DHT22;12082;51.786;6.018;2023-05-10T13:30:07;14.90;99.90
23803;DHT22;12082;51.786;6.018;2023-05-10T13:32:33;14.90;99.90
23803;DHT22;12082;51.786;6.018;2023-05-10T13:34:58;14.80;99.90
23803;DHT22;12082;51.786;6.018;2023-05-10T13:37:24;14.80;99.90
23803;DHT22;12082;51.786;6.018;2023-05-10T13:39:49;14.70;99.90
23803;DHT22;12082;51.786;6.018;2023-05-10T13:42:15;14.80;99.90
23803;DHT22;12082;51.786;6.018;2023-05-10T13:44:40;14.80;99.90
23803;DHT22;12082;51.786;6.018;2023-05-10T13:47:06;14.70;99.90
23803;DHT22;12082;51.786;6.018;2023-05-10T13:49:32;14.70;99.90
23803;DHT22;12082;51.786;6.018;2023-05-10T13:51:59;14.70;99.90
23803;DHT22;12082;51.786;6.018;2023-05-10T13:54:26;14.60;99.90
23803;DHT22;12082;51.786;6.018;2023-05-10T13:56:54;14.70;99.90
23803;DHT22;12082;51.786;6.018;2023-05-10T13:59:20;14.70;99.90
23803;DHT22;12082;51.786;6.018;2023-05-10T14:01:45;14.70;99.90
23803;DHT22;12082;51.786;6.018;2023-05-10T14:04:11;14.70;99.90
23803;DHT22;12082;51.786;6.018;2023-05-10T14:06:37;14.80;99.90
23803;DHT22;12082;51.786;6.018;2023-05-10T14:09:03;14.90;99.90
23803;DHT22;12082;51.786;6.018;2023-05-10T14:11:28;14.90;99.90
23803;DHT22;12082;51.786;6.018;2023-05-10T14:13:54;14.90;99.90
23803;DHT22;12082;51.786;6.018;2023-05-10T14:16:20;15.00;99.90
23803;DHT22;12082;51.786;6.018;2023-05-10T14:18:46;15.00;99.90
23803;DHT22;12082;51.786;6.018;2023-05-10T14:21:12;15.00;99.90
23803;DHT22;12082;51.786;6.018;2023-05-10T14:23:37;15.00;99.90
23803;DHT22;12082;51.786;6.018;2023-05-10T14:26:03;15.00;99.90
23803;DHT22;12082;51.786;6.018;2023-05-10T14:28:29;14.90;99.90
23803;DHT22;12082;51.786;6.018;2023-05-10T14:30:54;15.00;99.90
23803;DHT22;12082;51.786;6.018;2023-05-10T14:33:20;15.00;99.90
23803;DHT22;12082;51.786;6.018;2023-05-10T14:35:46;14.90;99.90
23803;DHT22;12082;51.786;6.018;2023-05-10T14:38:12;14.90;99.90
23803;DHT22;12082;51.786;6.018;2023-05-10T14:40:38;14.90;99.90
23803;DHT22;12082;51.786;6.018;2023-05-10T14:43:03;15.00;99.90
23803;DHT22;12082;51.786;6.018;2023-05-10T14:45:29;14.90;99.90
23803;DHT22;12082;51.786;6.018;2023-05-10T14:47:55;15.00;99.90
23803;DHT22;12082;51.786;6.018;2023-05-10T14:50:20;15.00;99.90
23803;DHT22;12082;51.786;6.018;2023-05-10T14:52:46;15.00;99.90
23803;DHT22;12082;51.786;6.018;2023-05-10T14:55:12;14.90;99.90
23803;DHT22;12082;51.786;6.018;2023-05-10T14:57:37;15.00;99.90
23803;DHT22;12082;51.786;6.018;2023-05-10T15:00:04;15.20;99.90
23803;DHT22;12082;51.786;6.018;2023-05-10T15:02:31;15.20;99.90
23803;DHT22;12082;51.786;6.018;2023-05-10T15:04:57;15.40;99.90
23803;DHT22;12082;51.786;6.018;2023-05-10T15:07:23;15.60;99.90
23803;DHT22;12082;51.786;6.018;2023-05-10T15:09:50;15.70;99.90
23803;DHT22;12082;51.786;6.018;2023-05-10T15:12:17;15.90;99.90
23803;DHT22;12082;51.786;6.018;2023-05-10T15:14:43;15.70;99.90
23803;DHT22;12082;51.786;6.018;2023-05-10T15:17:08;15.70;99.90
23803;DHT22;12082;51.786;6.018;2023-05-10T15:19:34;15.20;99.90
23803;DHT22;12082;51.786;6.018;2023-05-10T15:21:59;15.80;99.90
23803;DHT22;12082;51.786;6.018;2023-05-10T15:24:25;15.80;99.90
23803;DHT22;12082;51.786;6.018;2023-05-10T15:26:50;15.90;99.90
23803;DHT22;12082;51.786;6.018;2023-05-10T15:29:16;16.20;99.90
23803;DHT22;12082;51.786;6.018;2023-05-10T15:31:46;16.10;99.90
23803;DHT22;12082;51.786;6.018;2023-05-10T15:34:12;16.20;99.90
23803;DHT22;12082;51.786;6.018;2023-05-10T15:36:38;16.00;99.90
23803;DHT22;12082;51.786;6.018;2023-05-10T15:39:03;16.00;99.90
23803;DHT22;12082;51.786;6.018;2023-05-10T15:41:29;16.00;99.90
23803;DHT22;12082;51.786;6.018;2023-05-10T15:43:55;15.90;99.90
23803;DHT22;12082;51.786;6.018;2023-05-10T15:46:21;16.00;99.90
23803;DHT22;12082;51.786;6.018;2023-05-10T15:48:46;16.00;99.90
23803;DHT22;12082;51.786;6.018;2023-05-10T15:51:12;15.90;99.90
23803;DHT22;12082;51.786;6.018;2023-05-10T15:53:38;15.90;99.90
23803;DHT22;12082;51.786;6.018;2023-05-10T15:56:04;15.80;99.90
23803;DHT22;12082;51.786;6.018;2023-05-10T15:58:30;15.70;99.90